sensor_id;sensor_type;location;lat;lon;timestamp;pressure;altitude;pressure_sealevel;temperature;humidity
49055;BME280;35405;52.344;14.530;2023-01-10T07:08:11;100494.31;;;4.86;100.00
49055;BME280;35405;52.344;14.530;2023-01-10T07:10:38;100502.13;;;4.87;100.00
49055;BME280;35405;52.344;14.530;2023-01-10T07:13:03;100509.97;;;4.89;100.00
49055;BME280;35405;52.344;14.530;2023-01-10T07:15:29;100513.47;;;4.89;100.00
49055;BME280;35405;52.344;14.530;2023-01-10T07:17:57;100516.19;;;4.94;100.00
49055;BME280;35405;52.344;14.530;2023-01-10T07:20:23;100523.78;;;4.97;100.00
49055;BME280;35405;52.344;14.530;2023-01-10T07:22:55;100538.84;;;4.98;100.00
49055;BME280;35405;52.344;14.530;2023-01-10T07:25:21;100546.13;;;4.98;100.00
49055;BME280;35405;52.344;14.530;2023-01-10T07:27:46;100550.72;;;4.97;100.00
49055;BME280;35405;52.344;14.530;2023-01-10T07:30:11;100560.19;;;5.00;100.00
49055;BME280;35405;52.344;14.530;2023-01-10T07:32:37;100561.22;;;4.99;100.00
49055;BME280;35405;52.344;14.530;2023-01-10T07:35:02;100570.69;;;5.01;100.00
49055;BME280;35405;52.344;14.530;2023-01-10T07:37:27;100575.56;;;5.04;100.00
49055;BME280;35405;52.344;14.530;2023-01-10T07:39:52;100576.38;;;5.05;100.00
49055;BME280;35405;52.344;14.530;2023-01-10T07:42:17;100567.47;;;5.04;100.00
49055;BME280;35405;52.344;14.530;2023-01-10T07:44:43;100575.56;;;5.04;100.00
49055;BME280;35405;52.344;14.530;2023-01-10T07:47:08;100579.34;;;5.03;100.00
49055;BME280;35405;52.344;14.530;2023-01-10T07:49:33;100583.66;;;5.04;100.00
49055;BME280;35405;52.344;14.530;2023-01-10T07:51:58;100582.59;;;5.06;100.00
49055;BME280;35405;52.344;14.530;2023-01-10T07:54:24;100585.81;;;5.02;100.00
49055;BME280;35405;52.344;14.530;2023-01-10T07:56:49;100586.22;;;4.89;100.00
49055;BME280;35405;52.344;14.530;2023-01-10T07:59:14;100586.44;;;4.82;100.00
49055;BME280;35405;52.344;14.530;2023-01-10T08:01:39;100587.31;;;4.93;100.00
49055;BME280;35405;52.344;14.530;2023-01-10T08:04:05;100587.13;;;5.00;100.00
49055;BME280;35405;52.344;14.530;2023-01-10T08:06:30;100597.69;;;5.07;100.00
49055;BME280;35405;52.344;14.530;2023-01-10T08:08:56;100592.31;;;5.07;100.00
49055;BME280;35405;52.344;14.530;2023-01-10T08:11:21;100606.00;;;5.05;100.00
49055;BME280;35405;52.344;14.530;2023-01-10T08:13:49;100618.66;;;4.99;100.00
49055;BME280;35405;52.344;14.530;2023-01-10T08:16:14;100612.94;;;4.96;100.00
49055;BME280;35405;52.344;14.530;2023-01-10T08:18:39;100616.50;;;5.01;100.00
49055;BME280;35405;52.344;14.530;2023-01-10T08:21:07;100622.00;;;5.12;100.00
49055;BME280;35405;52.344;14.530;2023-01-10T08:23:32;100620.47;;;5.21;100.00
49055;BME280;35405;52.344;14.530;2023-01-10T08:25:58;100624.25;;;5.25;100.00
49055;BME280;35405;52.344;14.530;2023-01-10T08:28:23;100638.31;;;5.27;100.00
49055;BME280;35405;52.344;14.530;2023-01-10T08:30:48;100640.50;;;5.30;100.00
49055;BME280;35405;52.344;14.530;2023-01-10T08:33:19;100636.47;;;5.33;100.00
49055;BME280;35405;52.344;14.530;2023-01-10T08:35:44;100654.72;;;5.25;100.00
49055;BME280;35405;52.344;14.530;2023-01-10T08:38:10;100643.94;;;5.25;100.00
49055;BME280;35405;52.344;14.530;2023-01-10T08:40:35;100649.09;;;5.27;100.00
49055;BME280;35405;52.344;14.530;2023-01-10T08:43:04;100665.13;;;5.12;100.00
49055;BME280;35405;52.344;14.530;2023-01-10T08:45:30;100674.31;;;5.16;100.00
49055;BME280;35405;52.344;14.530;2023-01-10T08:47:55;100673.94;;;5.34;100.00
49055;BME280;35405;52.344;14.530;2023-01-10T08:50:21;100665.94;;;5.44;100.00
49055;BME280;35405;52.344;14.530;2023-01-10T08:52:46;100678.94;;;5.53;100.00
49055;BME280;35405;52.344;14.530;2023-01-10T08:55:11;100678.72;;;5.59;100.00
49055;BME280;35405;52.344;14.530;2023-01-10T08:57:36;100676.88;;;5.60;100.00
49055;BME280;35405;52.344;14.530;2023-01-10T09:00:02;100686.53;;;5.56;100.00
49055;BME280;35405;52.344;14.530;2023-01-10T09:02:28;100681.13;;;5.56;100.00
49055;BME280;35405;52.344;14.530;2023-01-10T09:04:53;100681.75;;;5.63;100.00
49055;BME280;35405;52.344;14.530;2023-01-10T09:07:18;100696.91;;;5.69;100.00
49055;BME280;35405;52.344;14.530;2023-01-10T09:09:43;100696.06;;;5.68;100.00
49055;BME280;35405;52.344;14.530;2023-01-10T09:12:09;100696.38;;;5.72;100.00
49055;BME280;35405;52.344;14.530;2023-01-10T09:14:52;100707.41;;;5.70;100.00
49055;BME280;35405;52.344;14.530;2023-01-10T09:17:18;100718.44;;;5.64;100.00
49055;BME280;35405;52.344;14.530;2023-01-10T09:19:43;100725.66;;;5.58;100.00
49055;BME280;35405;52.344;14.530;2023-01-10T09:22:08;100731.34;;;5.62;100.00
49055;BME280;35405;52.344;14.530;2023-01-10T09:24:34;100721.72;;;5.71;100.00
49055;BME280;35405;52.344;14.530;2023-01-10T09:27:01;100725.88;;;5.84;100.00
49055;BME280;35405;52.344;14.530;2023-01-10T09:29:26;100732.19;;;5.94;100.00
49055;BME280;35405;52.344;14.530;2023-01-10T09:31:51;100737.34;;;6.01;100.00
49055;BME280;35405;52.344;14.530;2023-01-10T09:34:16;100740.94;;;6.12;100.00
49055;BME280;35405;52.344;14.530;2023-01-10T09:36:42;100753.16;;;6.25;100.00
49055;BME280;35405;52.344;14.530;2023-01-10T09:39:07;100755.09;;;6.34;100.00
49055;BME280;35405;52.344;14.530;2023-01-10T09:41:39;100762.47;;;6.49;100.00
49055;BME280;35405;52.344;14.530;2023-01-10T09:44:19;100769.00;;;6.58;100.00
49055;BME280;35405;52.344;14.530;2023-01-10T09:47:01;100765.25;;;6.64;100.00
49055;BME280;35405;52.344;14.530;2023-01-10T09:49:41;100762.84;;;6.63;100.00
49055;BME280;35405;52.344;14.530;2023-01-10T09:52:33;100777.44;;;6.67;100.00
49055;BME280;35405;52.344;14.530;2023-01-10T09:54:57;100787.72;;;6.70;100.00
49055;BME280;35405;52.344;14.530;2023-01-10T09:57:24;100779.63;;;6.70;100.00
49055;BME280;35405;52.344;14.530;2023-01-10T09:59:50;100786.66;;;6.71;100.00
49055;BME280;35405;52.344;14.530;2023-01-10T10:02:33;100785.06;;;6.75;100.00
49055;BME280;35405;52.344;14.530;2023-01-10T10:05:03;100798.31;;;6.82;100.00
49055;BME280;35405;52.344;14.530;2023-01-10T10:07:31;100793.47;;;6.84;100.00
49055;BME280;35405;52.344;14.530;2023-01-10T10:09:56;100800.78;;;6.88;100.00
49055;BME280;35405;52.344;14.530;2023-01-10T10:12:31;100798.91;;;6.94;100.00
49055;BME280;35405;52.344;14.530;2023-01-10T10:15:07;100805.41;;;6.93;100.00
49055;BME280;35405;52.344;14.530;2023-01-10T10:20:10;100817.59;;;6.96;100.00
49055;BME280;35405;52.344;14.530;2023-01-10T10:33:20;100824.66;;;7.02;100.00
49055;BME280;35405;52.344;14.530;2023-01-10T10:35:59;100819.28;;;7.07;100.00
49055;BME280;35405;52.344;14.530;2023-01-10T10:38:31;100827.88;;;7.04;100.00
49055;BME280;35405;52.344;14.530;2023-01-10T10:40:58;100825.19;;;6.99;100.00
49055;BME280;35405;52.344;14.530;2023-01-10T10:43:25;100833.53;;;6.97;100.00
49055;BME280;35405;52.344;14.530;2023-01-10T10:46:05;100844.34;;;6.97;100.00
49055;BME280;35405;52.344;14.530;2023-01-10T10:48:42;100838.69;;;7.04;100.00
49055;BME280;35405;52.344;14.530;2023-01-10T10:53:45;100840.94;;;7.17;100.00
49055;BME280;35405;52.344;14.530;2023-01-10T10:56:12;100832.28;;;7.20;100.00
49055;BME280;35405;52.344;14.530;2023-01-10T10:58:41;100829.03;;;7.13;100.00
49055;BME280;35405;52.344;14.530;2023-01-10T11:01:25;100831.94;;;7.06;100.00
49055;BME280;35405;52.344;14.530;2023-01-10T11:03:51;100830.44;;;6.73;100.00
49055;BME280;35405;52.344;14.530;2023-01-10T11:06:18;100823.59;;;6.55;100.00
49055;BME280;35405;52.344;14.530;2023-01-10T11:08:45;100831.69;;;6.50;100.00
49055;BME280;35405;52.344;14.530;2023-01-10T11:11:22;100842.53;;;6.60;100.00
49055;BME280;35405;52.344;14.530;2023-01-10T11:13:53;100848.50;;;6.68;100.00
49055;BME280;35405;52.344;14.530;2023-01-10T11:16:23;100861.25;;;6.72;100.00
49055;BME280;35405;52.344;14.530;2023-01-10T11:19:03;100855.34;;;6.75;100.00
49055;BME280;35405;52.344;14.530;2023-01-10T11:21:32;100870.88;;;6.58;100.00
49055;BME280;35405;52.344;14.530;2023-01-10T11:23:58;100871.13;;;6.51;100.00
49055;BME280;35405;52.344;14.530;2023-01-10T11:26:27;100882.19;;;6.50;100.00
49055;BME280;35405;52.344;14.530;2023-01-10T11:31:38;100880.88;;;7.00;100.00
49055;BME280;35405;52.344;14.530;2023-01-10T11:34:04;100879.38;;;6.77;100.00
49055;BME280;35405;52.344;14.530;2023-01-10T11:36:45;100880.09;;;6.57;100.00
49055;BME280;35405;52.344;14.530;2023-01-10T11:39:15;100875.09;;;6.44;100.00
49055;BME280;35405;52.344;14.530;2023-01-10T11:41:41;100879.19;;;6.46;100.00
49055;BME280;35405;52.344;14.530;2023-01-10T11:44:13;100888.00;;;6.69;100.00
49055;BME280;35405;52.344;14.530;2023-01-10T11:46:39;100891.69;;;7.00;100.00
49055;BME280;35405;52.344;14.530;2023-01-10T11:49:52;100900.13;;;7.08;100.00
49055;BME280;35405;52.344;14.530;2023-01-10T11:51:54;100897.16;;;7.10;100.00
49055;BME280;35405;52.344;14.530;2023-01-10T11:54:24;100900.66;;;7.05;100.00
49055;BME280;35405;52.344;14.530;2023-01-10T11:59:21;100912.75;;;6.98;100.00
49055;BME280;35405;52.344;14.530;2023-01-10T12:01:52;100919.81;;;7.04;100.00
49055;BME280;35405;52.344;14.530;2023-01-10T12:04:18;100915.50;;;7.03;100.00
49055;BME280;35405;52.344;14.530;2023-01-10T12:06:46;100918.00;;;7.15;100.00
49055;BME280;35405;52.344;14.530;2023-01-10T12:09:31;100912.41;;;7.37;100.00
49055;BME280;35405;52.344;14.530;2023-01-10T12:12:13;100902.19;;;7.54;100.00
49055;BME280;35405;52.344;14.530;2023-01-10T12:14:39;100897.38;;;7.66;100.00
49055;BME280;35405;52.344;14.530;2023-01-10T12:17:04;100896.00;;;7.64;100.00
49055;BME280;35405;52.344;14.530;2023-01-10T12:19:30;100905.53;;;7.76;100.00
49055;BME280;35405;52.344;14.530;2023-01-10T12:21:59;100920.72;;;7.83;100.00
49055;BME280;35405;52.344;14.530;2023-01-10T12:24:31;100915.00;;;7.74;100.00
49055;BME280;35405;52.344;14.530;2023-01-10T12:26:58;100923.13;;;7.74;100.00
49055;BME280;35405;52.344;14.530;2023-01-10T12:29:28;100924.47;;;7.76;100.00
49055;BME280;35405;52.344;14.530;2023-01-10T12:31:56;100925.53;;;7.65;100.00
49055;BME280;35405;52.344;14.530;2023-01-10T12:34:24;100924.44;;;7.61;100.00
49055;BME280;35405;52.344;14.530;2023-01-10T12:39:21;100940.13;;;7.69;100.00
49055;BME280;35405;52.344;14.530;2023-01-10T12:41:51;100946.38;;;7.70;100.00
49055;BME280;35405;52.344;14.530;2023-01-10T12:47:11;100947.41;;;7.53;100.00
49055;BME280;35405;52.344;14.530;2023-01-10T12:49:43;100950.59;;;7.45;100.00
49055;BME280;35405;52.344;14.530;2023-01-10T12:52:13;100960.06;;;7.38;100.00
49055;BME280;35405;52.344;14.530;2023-01-10T12:54:40;100964.56;;;7.22;100.00
49055;BME280;35405;52.344;14.530;2023-01-10T12:57:11;100971.84;;;7.16;100.00
49055;BME280;35405;52.344;14.530;2023-01-10T12:59:38;100971.28;;;7.14;100.00
49055;BME280;35405;52.344;14.530;2023-01-10T13:02:06;100975.59;;;7.10;100.00
49055;BME280;35405;52.344;14.530;2023-01-10T13:04:37;100978.50;;;7.03;100.00
49055;BME280;35405;52.344;14.530;2023-01-10T13:07:05;100974.41;;;6.96;100.00
49055;BME280;35405;52.344;14.530;2023-01-10T13:09:30;100986.50;;;6.88;100.00
49055;BME280;35405;52.344;14.530;2023-01-10T13:12:09;100980.06;;;6.89;100.00
49055;BME280;35405;52.344;14.530;2023-01-10T13:14:37;100976.84;;;6.92;100.00
49055;BME280;35405;52.344;14.530;2023-01-10T13:22:33;100998.25;;;7.04;100.00
49055;BME280;35405;52.344;14.530;2023-01-10T13:25:00;100992.84;;;7.04;100.00
49055;BME280;35405;52.344;14.530;2023-01-10T13:27:32;101006.13;;;7.05;100.00
49055;BME280;35405;52.344;14.530;2023-01-10T13:29:58;101008.06;;;7.10;100.00
49055;BME280;35405;52.344;14.530;2023-01-10T13:32:26;101011.28;;;7.12;100.00
49055;BME280;35405;52.344;14.530;2023-01-10T13:34:52;101003.75;;;7.14;100.00
49055;BME280;35405;52.344;14.530;2023-01-10T13:39:50;101009.97;;;7.15;100.00
49055;BME280;35405;52.344;14.530;2023-01-10T13:42:35;101018.88;;;7.15;100.00
49055;BME280;35405;52.344;14.530;2023-01-10T13:45:23;101013.47;;;7.10;100.00
49055;BME280;35405;52.344;14.530;2023-01-10T14:06:08;101035.16;;;6.83;100.00
49055;BME280;35405;52.344;14.530;2023-01-10T14:08:35;101040.22;;;6.74;100.00
49055;BME280;35405;52.344;14.530;2023-01-10T14:11:05;101039.06;;;6.65;100.00
49055;BME280;35405;52.344;14.530;2023-01-10T14:13:31;101033.47;;;6.50;100.00
49055;BME280;35405;52.344;14.530;2023-01-10T14:15:56;101039.63;;;6.40;100.00
49055;BME280;35405;52.344;14.530;2023-01-10T14:18:23;101032.53;;;6.34;100.00
49055;BME280;35405;52.344;14.530;2023-01-10T14:20:58;101029.53;;;6.30;100.00
49055;BME280;35405;52.344;14.530;2023-01-10T14:25:59;101032.22;;;6.30;100.00
49055;BME280;35405;52.344;14.530;2023-01-10T14:28:26;101035.78;;;6.36;100.00
49055;BME280;35405;52.344;14.530;2023-01-10T14:31:00;101039.63;;;6.40;100.00
49055;BME280;35405;52.344;14.530;2023-01-10T14:33:26;101040.19;;;6.42;100.00
49055;BME280;35405;52.344;14.530;2023-01-10T14:35:53;101047.19;;;6.38;100.00
49055;BME280;35405;52.344;14.530;2023-01-10T14:38:25;101047.69;;;6.35;100.00
49055;BME280;35405;52.344;14.530;2023-01-10T14:40:54;101048.50;;;6.35;100.00
49055;BME280;35405;52.344;14.530;2023-01-10T14:43:24;101045.78;;;6.35;100.00
49055;BME280;35405;52.344;14.530;2023-01-10T14:48:39;101050.38;;;6.35;100.00
49055;BME280;35405;52.344;14.530;2023-01-10T14:51:09;101045.22;;;6.33;100.00
49055;BME280;35405;52.344;14.530;2023-01-10T14:53:34;101051.44;;;6.34;100.00
49055;BME280;35405;52.344;14.530;2023-01-10T14:56:14;101056.28;;;6.32;100.00
49055;BME280;35405;52.344;14.530;2023-01-10T14:58:43;101046.25;;;6.27;100.00
49055;BME280;35405;52.344;14.530;2023-01-10T15:01:09;101048.38;;;6.25;100.00
49055;BME280;35405;52.344;14.530;2023-01-10T15:03:34;101039.66;;;6.18;100.00
49055;BME280;35405;52.344;14.530;2023-01-10T15:06:05;101040.47;;;6.18;100.00
49055;BME280;35405;52.344;14.530;2023-01-10T15:08:30;101035.38;;;6.22;100.00
49055;BME280;35405;52.344;14.530;2023-01-10T15:11:03;101027.78;;;6.19;100.00
49055;BME280;35405;52.344;14.530;2023-01-10T15:13:30;101026.38;;;6.16;100.00
49055;BME280;35405;52.344;14.530;2023-01-10T15:15:58;101020.91;;;6.06;100.00
49055;BME280;35405;52.344;14.530;2023-01-10T15:20:49;101031.09;;;5.99;100.00
49055;BME280;35405;52.344;14.530;2023-01-10T15:23:14;101036.41;;;5.94;100.00
49055;BME280;35405;52.344;14.530;2023-01-10T15:25:39;101028.69;;;5.81;100.00
49055;BME280;35405;52.344;14.530;2023-01-10T15:28:15;101027.13;;;5.68;100.00
49055;BME280;35405;52.344;14.530;2023-01-10T15:30:41;101024.13;;;5.64;100.00
49055;BME280;35405;52.344;14.530;2023-01-10T15:33:09;101032.50;;;5.63;100.00
49055;BME280;35405;52.344;14.530;2023-01-10T15:35:37;101033.03;;;5.65;100.00
49055;BME280;35405;52.344;14.530;2023-01-10T15:38:06;101033.13;;;5.70;100.00
49055;BME280;35405;52.344;14.530;2023-01-10T15:40:33;101039.09;;;5.72;100.00
49055;BME280;35405;52.344;14.530;2023-01-10T15:45:42;101042.91;;;5.76;100.00
49055;BME280;35405;52.344;14.530;2023-01-10T15:50:54;101038.50;;;5.70;100.00
49055;BME280;35405;52.344;14.530;2023-01-10T15:53:19;101038.81;;;5.73;100.00
49055;BME280;35405;52.344;14.530;2023-01-10T15:56:09;101051.75;;;5.71;100.00
49055;BME280;35405;52.344;14.530;2023-01-10T15:58:35;101040.94;;;5.71;100.00
49055;BME280;35405;52.344;14.530;2023-01-10T16:01:00;101049.31;;;5.70;100.00
49055;BME280;35405;52.344;14.530;2023-01-10T16:03:35;101051.19;;;5.69;100.00
49055;BME280;35405;52.344;14.530;2023-01-10T16:06:01;101051.69;;;5.66;100.00
49055;BME280;35405;52.344;14.530;2023-01-10T16:08:32;101058.72;;;5.67;100.00
49055;BME280;35405;52.344;14.530;2023-01-10T16:10:59;101050.94;;;5.71;100.00
49055;BME280;35405;52.344;14.530;2023-01-10T16:13:25;101048.81;;;5.73;100.00
49055;BME280;35405;52.344;14.530;2023-01-10T16:15:51;101058.47;;;5.69;100.00
49055;BME280;35405;52.344;14.530;2023-01-10T16:18:16;101048.50;;;5.69;100.00
49055;BME280;35405;52.344;14.530;2023-01-10T16:20:42;101054.19;;;5.73;100.00
49055;BME280;35405;52.344;14.530;2023-01-10T16:23:18;101058.88;;;5.78;100.00
49055;BME280;35405;52.344;14.530;2023-01-10T16:25:45;101061.00;;;5.76;100.00
49055;BME280;35405;52.344;14.530;2023-01-10T16:28:11;101068.81;;;5.77;100.00
49055;BME280;35405;52.344;14.530;2023-01-10T16:30:37;101061.00;;;5.76;100.00
49055;BME280;35405;52.344;14.530;2023-01-10T16:33:11;101074.16;;;5.72;100.00
49055;BME280;35405;52.344;14.530;2023-01-10T16:35:39;101065.22;;;5.71;100.00
49055;BME280;35405;52.344;14.530;2023-01-10T16:38:04;101075.78;;;5.73;100.00
49055;BME280;35405;52.344;14.530;2023-01-10T16:40:33;101067.69;;;5.73;100.00
49055;BME280;35405;52.344;14.530;2023-01-10T16:43:01;101073.66;;;5.75;100.00
49055;BME280;35405;52.344;14.530;2023-01-10T16:45:45;101063.41;;;5.77;100.00
49055;BME280;35405;52.344;14.530;2023-01-10T16:48:10;101061.56;;;5.78;100.00
49055;BME280;35405;52.344;14.530;2023-01-10T16:50:35;101060.41;;;5.73;100.00
49055;BME280;35405;52.344;14.530;2023-01-10T16:53:01;101060.09;;;5.70;100.00
49055;BME280;35405;52.344;14.530;2023-01-10T16:55:38;101068.69;;;5.67;100.00
49055;BME280;35405;52.344;14.530;2023-01-10T16:58:04;101070.19;;;5.58;100.00
49055;BME280;35405;52.344;14.530;2023-01-10T17:00:30;101067.31;;;5.47;100.00
49055;BME280;35405;52.344;14.530;2023-01-10T17:02:55;101063.41;;;5.38;100.00
49055;BME280;35405;52.344;14.530;2023-01-10T17:05:21;101061.81;;;5.37;100.00
49055;BME280;35405;52.344;14.530;2023-01-10T17:07:46;101062.38;;;5.39;100.00
49055;BME280;35405;52.344;14.530;2023-01-10T17:10:11;101059.91;;;5.38;100.00
49055;BME280;35405;52.344;14.530;2023-01-10T17:12:36;101061.00;;;5.37;100.00
49055;BME280;35405;52.344;14.530;2023-01-10T17:15:03;101065.88;;;5.40;100.00
49055;BME280;35405;52.344;14.530;2023-01-10T17:17:29;101067.81;;;5.44;100.00
49055;BME280;35405;52.344;14.530;2023-01-10T17:19:56;101062.44;;;5.44;100.00
49055;BME280;35405;52.344;14.530;2023-01-10T17:22:22;101063.00;;;5.46;100.00
49055;BME280;35405;52.344;14.530;2023-01-10T17:24:47;101065.22;;;5.49;100.00
49055;BME280;35405;52.344;14.530;2023-01-10T17:27:12;101073.88;;;5.52;100.00
49055;BME280;35405;52.344;14.530;2023-01-10T17:29:37;101077.72;;;5.56;100.00
49055;BME280;35405;52.344;14.530;2023-01-10T17:32:03;101069.13;;;5.59;100.00
49055;BME280;35405;52.344;14.530;2023-01-10T17:34:29;101079.34;;;5.57;100.00
49055;BME280;35405;52.344;14.530;2023-01-10T17:37:00;101080.41;;;5.56;100.00
49055;BME280;35405;52.344;14.530;2023-01-10T17:39:25;101077.47;;;5.57;100.00
49055;BME280;35405;52.344;14.530;2023-01-10T17:41:50;101082.59;;;5.59;100.00
49055;BME280;35405;52.344;14.530;2023-01-10T17:44:17;101074.28;;;5.60;100.00
49055;BME280;35405;52.344;14.530;2023-01-10T17:46:42;101077.22;;;5.59;100.00
49055;BME280;35405;52.344;14.530;2023-01-10T17:49:07;101071.25;;;5.57;100.00
49055;BME280;35405;52.344;14.530;2023-01-10T17:51:32;101079.00;;;5.53;100.00
49055;BME280;35405;52.344;14.530;2023-01-10T17:53:57;101085.81;;;5.56;100.00
49055;BME280;35405;52.344;14.530;2023-01-10T17:56:23;101088.25;;;5.57;100.00
49055;BME280;35405;52.344;14.530;2023-01-10T17:58:49;101085.81;;;5.56;100.00
49055;BME280;35405;52.344;14.530;2023-01-10T18:01:16;101092.28;;;5.55;100.00
49055;BME280;35405;52.344;14.530;2023-01-10T18:03:42;101085.25;;;5.54;100.00
49055;BME280;35405;52.344;14.530;2023-01-10T18:06:08;101089.56;;;5.55;100.00
49055;BME280;35405;52.344;14.530;2023-01-10T18:08:33;101093.34;;;5.54;100.00
49055;BME280;35405;52.344;14.530;2023-01-10T18:10:58;101084.41;;;5.53;100.00
49055;BME280;35405;52.344;14.530;2023-01-10T18:13:24;101080.09;;;5.52;100.00
49055;BME280;35405;52.344;14.530;2023-01-10T18:15:53;101081.16;;;5.51;100.00
49055;BME280;35405;52.344;14.530;2023-01-10T18:18:18;101083.06;;;5.50;100.00
49055;BME280;35405;52.344;14.530;2023-01-10T18:20:45;101080.59;;;5.49;100.00
49055;BME280;35405;52.344;14.530;2023-01-10T18:23:13;101084.34;;;5.48;100.00
49055;BME280;35405;52.344;14.530;2023-01-10T18:28:16;101084.34;;;5.48;100.00
49055;BME280;35405;52.344;14.530;2023-01-10T18:30:42;101087.88;;;5.48;100.00
49055;BME280;35405;52.344;14.530;2023-01-10T18:33:07;101089.19;;;5.46;100.00
49055;BME280;35405;52.344;14.530;2023-01-10T18:35:32;101096.47;;;5.45;100.00
49055;BME280;35405;52.344;14.530;2023-01-10T18:37:57;101095.78;;;5.38;100.00
49055;BME280;35405;52.344;14.530;2023-01-10T18:40:22;101098.75;;;5.37;100.00
49055;BME280;35405;52.344;14.530;2023-01-10T18:42:49;101102.53;;;5.36;100.00
49055;BME280;35405;52.344;14.530;2023-01-10T18:45:17;101104.47;;;5.40;100.00
49055;BME280;35405;52.344;14.530;2023-01-10T18:47:42;101094.47;;;5.41;100.00
49055;BME280;35405;52.344;14.530;2023-01-10T18:50:08;101089.84;;;5.36;100.00
49055;BME280;35405;52.344;14.530;2023-01-10T18:52:33;101101.34;;;5.32;100.00
49055;BME280;35405;52.344;14.530;2023-01-10T18:54:58;101096.22;;;5.30;100.00
49055;BME280;35405;52.344;14.530;2023-01-10T18:57:23;101088.38;;;5.28;100.00
49055;BME280;35405;52.344;14.530;2023-01-10T18:59:49;101090.56;;;5.32;100.00
49055;BME280;35405;52.344;14.530;2023-01-10T19:02:14;101091.66;;;5.31;100.00
49055;BME280;35405;52.344;14.530;2023-01-10T19:04:40;101086.47;;;5.29;100.00
49055;BME280;35405;52.344;14.530;2023-01-10T19:07:05;101088.94;;;5.31;100.00
49055;BME280;35405;52.344;14.530;2023-01-10T19:09:30;101085.34;;;5.25;100.00
49055;BME280;35405;52.344;14.530;2023-01-10T19:11:55;101071.63;;;5.10;100.00
49055;BME280;35405;52.344;14.530;2023-01-10T19:14:21;101077.97;;;4.87;100.00
49055;BME280;35405;52.344;14.530;2023-01-10T19:16:46;101074.22;;;4.71;100.00
49055;BME280;35405;52.344;14.530;2023-01-10T19:19:11;101075.25;;;4.53;100.00
49055;BME280;35405;52.344;14.530;2023-01-10T19:21:36;101070.38;;;4.38;100.00
49055;BME280;35405;52.344;14.530;2023-01-10T19:24:04;101063.75;;;4.29;100.00
49055;BME280;35405;52.344;14.530;2023-01-10T19:26:30;101058.19;;;4.19;100.00
49055;BME280;35405;52.344;14.530;2023-01-10T19:28:58;101060.50;;;4.15;100.00
49055;BME280;35405;52.344;14.530;2023-01-10T19:31:27;101061.13;;;4.05;100.00
49055;BME280;35405;52.344;14.530;2023-01-10T19:33:53;101060.56;;;4.03;100.00
49055;BME280;35405;52.344;14.530;2023-01-10T19:36:19;101062.09;;;3.99;100.00
49055;BME280;35405;52.344;14.530;2023-01-10T19:38:45;101062.56;;;3.96;100.00
49055;BME280;35405;52.344;14.530;2023-01-10T19:41:10;101056.25;;;3.90;100.00
49055;BME280;35405;52.344;14.530;2023-01-10T19:43:35;101045.50;;;3.90;100.00
49055;BME280;35405;52.344;14.530;2023-01-10T19:46:19;101045.63;;;3.84;100.00
49055;BME280;35405;52.344;14.530;2023-01-10T19:48:44;101038.41;;;3.73;100.00
49055;BME280;35405;52.344;14.530;2023-01-10T19:51:10;101039.47;;;3.72;100.00
49055;BME280;35405;52.344;14.530;2023-01-10T19:53:36;101030.25;;;3.67;100.00
49055;BME280;35405;52.344;14.530;2023-01-10T19:56:02;101026.75;;;3.55;100.00
49055;BME280;35405;52.344;14.530;2023-01-10T19:58:28;101020.19;;;3.51;100.00
49055;BME280;35405;52.344;14.530;2023-01-10T20:00:54;101023.84;;;3.45;100.00
49055;BME280;35405;52.344;14.530;2023-01-10T20:03:19;101018.94;;;3.42;100.00
49055;BME280;35405;52.344;14.530;2023-01-10T20:05:44;101021.03;;;3.40;100.00
49055;BME280;35405;52.344;14.530;2023-01-10T20:08:09;101012.75;;;3.41;100.00
49055;BME280;35405;52.344;14.530;2023-01-10T20:10:34;101010.72;;;3.49;100.00
49055;BME280;35405;52.344;14.530;2023-01-10T20:12:59;101004.88;;;3.52;100.00
49055;BME280;35405;52.344;14.530;2023-01-10T20:15:25;101011.00;;;3.47;100.00
49055;BME280;35405;52.344;14.530;2023-01-10T20:17:50;100998.22;;;3.42;100.00
49055;BME280;35405;52.344;14.530;2023-01-10T20:20:15;101000.38;;;3.40;100.00
49055;BME280;35405;52.344;14.530;2023-01-10T20:22:43;100998.72;;;3.39;100.00
49055;BME280;35405;52.344;14.530;2023-01-10T20:25:08;101000.69;;;3.44;100.00
49055;BME280;35405;52.344;14.530;2023-01-10T20:27:34;100992.63;;;3.56;100.00
49055;BME280;35405;52.344;14.530;2023-01-10T20:30:00;100986.03;;;3.63;100.00
49055;BME280;35405;52.344;14.530;2023-01-10T20:32:25;100987.78;;;3.70;100.00
49055;BME280;35405;52.344;14.530;2023-01-10T20:34:51;100996.56;;;3.65;100.00
49055;BME280;35405;52.344;14.530;2023-01-10T20:37:16;100981.88;;;3.56;100.00
49055;BME280;35405;52.344;14.530;2023-01-10T20:39:41;100987.38;;;3.49;100.00
49055;BME280;35405;52.344;14.530;2023-01-10T20:42:06;100988.66;;;3.47;100.00
49055;BME280;35405;52.344;14.530;2023-01-10T20:44:32;100978.94;;;3.46;100.00
49055;BME280;35405;52.344;14.530;2023-01-10T20:46:57;100985.84;;;3.41;100.00
49055;BME280;35405;52.344;14.530;2023-01-10T20:49:22;100981.19;;;3.37;100.00
49055;BME280;35405;52.344;14.530;2023-01-10T20:51:47;100980.28;;;3.31;100.00
49055;BME280;35405;52.344;14.530;2023-01-10T20:54:14;100977.00;;;3.29;100.00
49055;BME280;35405;52.344;14.530;2023-01-10T20:56:39;100982.13;;;3.31;100.00
49055;BME280;35405;52.344;14.530;2023-01-10T20:59:04;100975.59;;;3.27;100.00